Time;durP1;ratioP1;P1;durP2;ratioP2;P2;SDS_P1;SDS_P2;PMS_P1;PMS_P2;Temp;Humidity;BMP_temperature;BMP_pressure;BME280_temperature;BME280_humidity;BME280_pressure;Samples;Min_cycle;Max_cycle;Signal;HPM_P1;HPM_P2
2023/08/28 00:00:40;;;;;;;1.53;1.53;;;26.60;51.50;;;;;;5028732;28;20484;-80
2023/08/28 00:03:08;;;;;;;1.30;1.30;;;26.60;51.40;;;;;;5030714;28;20415;-80
2023/08/28 00:05:36;;;;;;;1.83;1.40;;;26.50;51.40;;;;;;5034481;28;20806;-78
2023/08/28 00:08:05;;;;;;;2.13;1.77;;;26.50;51.50;;;;;;5030543;28;21032;-78
2023/08/28 00:10:36;;;;;;;1.63;1.43;;;26.50;51.60;;;;;;5030611;28;20505;-77
2023/08/28 00:13:04;;;;;;;1.67;1.57;;;26.50;51.40;;;;;;5030901;28;20531;-78
2023/08/28 00:15:32;;;;;;;1.67;1.50;;;26.50;51.40;;;;;;5030746;28;20443;-78
2023/08/28 00:18:01;;;;;;;1.83;1.73;;;26.50;51.50;;;;;;5029601;28;20560;-81
2023/08/28 00:20:29;;;;;;;1.50;1.40;;;26.50;51.40;;;;;;5022417;28;20480;-79
2023/08/28 00:22:58;;;;;;;2.00;1.43;;;26.40;51.40;;;;;;5022851;28;20498;-80
2023/08/28 00:25:26;;;;;;;1.90;1.30;;;26.40;51.40;;;;;;5031274;28;20455;-79
2023/08/28 00:27:54;;;;;;;2.10;1.53;;;26.40;51.60;;;;;;5034219;28;20558;-78
2023/08/28 00:30:22;;;;;;;1.47;1.47;;;26.40;51.60;;;;;;5033438;28;20422;-79
2023/08/28 00:32:50;;;;;;;3.03;1.60;;;26.40;51.50;;;;;;5032507;28;21007;-79
2023/08/28 00:35:19;;;;;;;1.60;1.50;;;26.40;51.50;;;;;;5032567;28;20526;-80
2023/08/28 00:37:46;;;;;;;2.80;1.20;;;26.40;51.60;;;;;;5016375;28;20423;-79
2023/08/28 00:40:16;;;;;;;1.30;1.20;;;26.40;51.20;;;;;;5026618;28;20983;-79
2023/08/28 00:42:44;;;;;;;1.40;1.40;;;26.40;51.60;;;;;;5030688;28;20501;-79
2023/08/28 00:45:11;;;;;;;1.40;1.17;;;26.40;51.30;;;;;;5032538;28;20531;-79
2023/08/28 00:47:39;;;;;;;1.37;1.27;;;26.30;51.60;;;;;;5033770;28;20524;-81
2023/08/28 00:50:08;;;;;;;1.57;1.50;;;26.40;51.50;;;;;;5033963;28;20497;-81
2023/08/28 00:52:37;;;;;;;1.70;1.60;;;26.40;51.70;;;;;;5033763;28;20497;-81
2023/08/28 00:55:05;;;;;;;1.63;1.57;;;26.40;51.60;;;;;;5033426;28;20478;-78
2023/08/28 00:57:33;;;;;;;1.90;1.80;;;26.30;51.50;;;;;;5033564;28;20538;-79
2023/08/28 01:00:03;;;;;;;2.30;2.10;;;26.30;51.60;;;;;;5033482;28;20554;-78
2023/08/28 01:02:31;;;;;;;2.43;2.23;;;26.30;51.60;;;;;;5033582;28;20517;-79
2023/08/28 01:04:59;;;;;;;2.67;2.47;;;26.30;51.80;;;;;;5031297;28;20548;-79
2023/08/28 01:07:31;;;;;;;2.80;2.70;;;26.30;51.80;;;;;;5029195;28;20542;-78
2023/08/28 01:10:05;;;;;;;2.80;2.60;;;26.30;51.80;;;;;;5033166;28;20478;-79
2023/08/28 01:12:35;;;;;;;3.13;2.93;;;26.30;51.70;;;;;;5032307;28;20491;-79
2023/08/28 01:15:06;;;;;;;3.53;3.33;;;26.40;51.80;;;;;;5033352;28;20414;-78
2023/08/28 01:17:34;;;;;;;5.30;4.53;;;26.30;51.60;;;;;;5033277;28;20469;-79
2023/08/28 01:20:04;;;;;;;5.83;5.23;;;26.30;51.70;;;;;;5025079;28;20448;-77
2023/08/28 01:22:33;;;;;;;6.50;5.90;;;26.30;51.80;;;;;;5033633;28;20518;-78
2023/08/28 01:25:05;;;;;;;8.10;6.63;;;26.30;51.70;;;;;;5032842;28;20442;-78
2023/08/28 01:27:33;;;;;;;9.30;7.47;;;26.30;51.90;;;;;;5033314;28;20463;-77
2023/08/28 01:30:08;;;;;;;11.07;8.77;;;26.40;51.80;;;;;;5033245;28;20887;-78
2023/08/28 01:32:36;;;;;;;10.33;8.93;;;26.30;51.70;;;;;;5033357;28;20471;-77
2023/08/28 01:35:07;;;;;;;10.20;8.80;;;26.30;52.00;;;;;;5024571;28;20418;-79
2023/08/28 01:37:49;;;;;;;13.30;9.97;;;26.30;52.10;;;;;;5031561;28;20451;-78
2023/08/28 01:40:18;;;;;;;11.90;9.80;;;26.30;52.70;;;;;;5021322;28;20558;-79
2023/08/28 01:42:47;;;;;;;11.73;9.93;;;26.30;52.00;;;;;;5022152;28;20453;-79
2023/08/28 01:45:15;;;;;;;10.03;8.90;;;26.30;52.20;;;;;;5032759;28;20422;-79
2023/08/28 01:47:44;;;;;;;11.67;10.27;;;26.30;52.20;;;;;;5032665;28;20442;-79
2023/08/28 01:50:12;;;;;;;13.00;10.10;;;26.30;52.90;;;;;;5032139;28;20444;-79
2023/08/28 01:52:40;;;;;;;11.33;9.30;;;26.30;52.10;;;;;;5032075;28;20925;-79
2023/08/28 01:55:08;;;;;;;12.73;9.50;;;26.30;52.20;;;;;;5024031;28;20437;-76
2023/08/28 01:57:37;;;;;;;10.60;9.13;;;26.30;52.10;;;;;;5024440;28;21072;-78
2023/08/28 02:00:06;;;;;;;10.67;9.07;;;26.20;52.20;;;;;;5025702;28;20546;-81
2023/08/28 02:02:35;;;;;;;9.43;8.40;;;26.20;52.30;;;;;;5032447;28;20454;-78
2023/08/28 02:05:03;;;;;;;10.80;9.30;;;26.20;52.30;;;;;;5032082;28;20505;-80
2023/08/28 02:07:31;;;;;;;9.80;8.20;;;26.20;52.20;;;;;;5032122;28;20535;-79
2023/08/28 02:09:59;;;;;;;8.97;8.00;;;26.20;52.40;;;;;;5032064;28;21002;-79
2023/08/28 02:12:27;;;;;;;9.50;8.47;;;26.20;52.40;;;;;;5031972;28;20545;-79
2023/08/28 02:14:56;;;;;;;8.50;7.60;;;26.20;52.50;;;;;;5032054;28;20479;-78
2023/08/28 02:17:24;;;;;;;9.07;7.17;;;26.20;52.30;;;;;;5031675;28;20454;-79
2023/08/28 02:19:52;;;;;;;8.67;7.77;;;26.20;52.30;;;;;;5032339;28;20471;-79
2023/08/28 02:22:20;;;;;;;8.13;7.30;;;26.20;52.40;;;;;;5031643;28;20445;-78
2023/08/28 02:24:48;;;;;;;7.60;6.80;;;26.20;52.70;;;;;;5023691;28;20472;-79
2023/08/28 02:27:16;;;;;;;7.47;6.73;;;26.20;52.70;;;;;;5031792;28;20457;-79
2023/08/28 02:29:44;;;;;;;7.00;6.27;;;26.20;52.60;;;;;;5031693;28;20463;-78
2023/08/28 02:32:13;;;;;;;6.03;5.50;;;26.10;52.70;;;;;;5031706;28;20531;-79
2023/08/28 02:34:41;;;;;;;6.80;6.17;;;26.10;52.70;;;;;;5024030;28;20889;-79
2023/08/28 02:37:10;;;;;;;7.40;5.70;;;26.10;52.70;;;;;;5031723;28;20482;-80
2023/08/28 02:39:38;;;;;;;6.90;6.20;;;26.10;52.80;;;;;;5032229;28;20490;-79
2023/08/28 02:42:06;;;;;;;6.50;5.80;;;26.10;52.70;;;;;;5032214;28;20443;-80
2023/08/28 02:44:34;;;;;;;6.17;5.57;;;26.10;52.80;;;;;;5032227;28;20459;-81
2023/08/28 02:47:02;;;;;;;5.60;5.10;;;26.00;52.80;;;;;;5032132;28;20543;-80
2023/08/28 02:49:31;;;;;;;5.83;5.30;;;26.00;52.70;;;;;;5031704;28;20530;-82
2023/08/28 02:51:59;;;;;;;6.27;5.20;;;26.00;52.80;;;;;;5027662;28;20473;-79
2023/08/28 02:54:27;;;;;;;6.03;5.00;;;26.00;52.90;;;;;;5032248;28;20473;-80
2023/08/28 02:56:55;;;;;;;6.20;4.97;;;26.00;52.80;;;;;;5032526;28;20482;-79
2023/08/28 02:59:23;;;;;;;5.77;4.73;;;26.00;52.80;;;;;;5031874;28;20481;-79
2023/08/28 03:01:50;;;;;;;9.90;4.90;;;26.00;52.90;;;;;;5032059;28;20435;-80
2023/08/28 03:04:18;;;;;;;7.17;5.47;;;26.00;52.90;;;;;;5031999;28;20422;-78
2023/08/28 03:06:47;;;;;;;4.63;4.27;;;25.90;52.70;;;;;;5031863;28;20436;-79
2023/08/28 03:09:15;;;;;;;4.63;4.27;;;25.90;52.90;;;;;;5023838;28;20458;-79
2023/08/28 03:11:43;;;;;;;4.53;4.13;;;25.90;52.70;;;;;;5031102;28;20436;-81
2023/08/28 03:14:11;;;;;;;4.50;4.10;;;25.90;52.70;;;;;;5031778;28;20518;-78
2023/08/28 03:16:39;;;;;;;4.17;3.83;;;25.90;52.80;;;;;;5032398;28;20440;-79
2023/08/28 03:19:07;;;;;;;4.70;4.30;;;25.90;52.70;;;;;;5032312;28;20511;-81
2023/08/28 03:21:35;;;;;;;3.37;3.17;;;25.90;52.90;;;;;;5032348;28;20566;-81
2023/08/28 03:24:05;;;;;;;3.73;3.50;;;25.90;52.70;;;;;;5032824;28;20530;-79
2023/08/28 03:26:33;;;;;;;3.70;3.40;;;25.90;52.60;;;;;;5032264;28;20428;-79
2023/08/28 03:29:01;;;;;;;3.43;3.13;;;25.90;52.80;;;;;;5031278;28;20494;-79
2023/08/28 03:31:29;;;;;;;3.90;3.60;;;25.90;52.80;;;;;;5031034;28;20538;-78
2023/08/28 03:33:59;;;;;;;3.23;3.03;;;25.90;52.80;;;;;;5030911;28;20444;-79
2023/08/28 03:36:27;;;;;;;3.90;3.50;;;25.90;52.80;;;;;;5031103;28;20470;-79
2023/08/28 03:38:55;;;;;;;5.03;3.20;;;25.90;52.70;;;;;;5030787;28;20533;-79
2023/08/28 03:41:24;;;;;;;3.63;3.33;;;25.90;52.60;;;;;;5030958;28;20471;-79
2023/08/28 03:43:52;;;;;;;3.30;3.10;;;25.80;52.70;;;;;;5030307;28;20503;-80
2023/08/28 03:46:20;;;;;;;3.20;3.00;;;25.90;53.00;;;;;;5029579;28;20527;-80
2023/08/28 03:48:47;;;;;;;3.03;2.80;;;25.90;52.90;;;;;;5029512;28;20455;-80
2023/08/28 03:51:15;;;;;;;3.23;2.93;;;25.90;52.90;;;;;;5024487;28;20438;-81
2023/08/28 03:53:43;;;;;;;2.53;2.40;;;25.90;52.90;;;;;;5029478;28;20517;-80
2023/08/28 03:56:11;;;;;;;2.77;2.57;;;25.90;52.80;;;;;;5029392;28;20512;-83
2023/08/28 03:58:41;;;;;;;2.47;2.30;;;25.90;52.90;;;;;;5029507;28;20578;-82
2023/08/28 04:01:09;;;;;;;3.40;3.10;;;25.80;52.80;;;;;;5031540;28;20572;-79
2023/08/28 04:03:37;;;;;;;2.87;2.27;;;25.90;52.90;;;;;;5027927;28;20422;-79
2023/08/28 04:06:05;;;;;;;2.07;1.97;;;25.90;53.00;;;;;;5032067;28;20447;-79
2023/08/28 04:08:33;;;;;;;2.57;2.47;;;25.90;52.90;;;;;;5029087;28;20543;-80
2023/08/28 04:11:01;;;;;;;2.73;2.53;;;25.80;52.70;;;;;;5032421;28;20517;-79
2023/08/28 04:13:29;;;;;;;2.30;2.20;;;25.80;52.90;;;;;;5034426;28;20533;-80
2023/08/28 04:15:59;;;;;;;2.13;2.03;;;25.80;52.80;;;;;;5034410;28;20973;-81
2023/08/28 04:18:27;;;;;;;2.70;2.53;;;25.80;53.00;;;;;;5035331;28;20481;-80
2023/08/28 04:20:56;;;;;;;4.67;2.50;;;25.80;53.50;;;;;;5034363;28;20483;-80
2023/08/28 04:23:24;;;;;;;2.13;2.03;;;25.80;53.00;;;;;;5034020;28;20479;-80
2023/08/28 04:25:52;;;;;;;1.97;1.87;;;25.70;53.00;;;;;;5034334;28;20451;-79
2023/08/28 04:28:20;;;;;;;3.60;2.30;;;25.70;52.90;;;;;;5034593;28;20545;-79
2023/08/28 04:30:48;;;;;;;2.10;2.00;;;25.80;53.10;;;;;;5035348;28;20501;-79
2023/08/28 04:33:18;;;;;;;2.80;2.30;;;25.70;52.90;;;;;;5034948;28;20463;-80
2023/08/28 04:35:46;;;;;;;2.10;2.00;;;25.70;52.90;;;;;;5034355;28;20439;-80
2023/08/28 04:38:14;;;;;;;2.20;2.07;;;25.80;53.00;;;;;;5033696;28;20497;-81
2023/08/28 04:40:42;;;;;;;2.10;1.90;;;25.70;53.00;;;;;;5033777;28;20502;-81
2023/08/28 04:43:10;;;;;;;2.13;2.03;;;25.70;53.10;;;;;;5030715;28;20985;-80
2023/08/28 04:45:38;;;;;;;2.17;2.07;;;25.70;53.20;;;;;;5035108;28;20463;-82
2023/08/28 04:48:07;;;;;;;2.23;2.13;;;25.70;53.10;;;;;;5034644;28;20460;-80
2023/08/28 04:50:36;;;;;;;1.90;1.80;;;25.70;53.10;;;;;;5035110;28;20496;-80
2023/08/28 04:53:04;;;;;;;7.03;1.90;;;25.70;53.10;;;;;;5029616;28;20469;-80
2023/08/28 04:55:32;;;;;;;2.17;2.07;;;25.70;53.00;;;;;;5035437;28;20490;-80
2023/08/28 04:58:00;;;;;;;1.87;1.77;;;25.70;53.10;;;;;;5034241;28;20540;-79
2023/08/28 05:00:28;;;;;;;2.00;1.90;;;25.70;53.00;;;;;;5033677;28;20530;-80
2023/08/28 05:02:56;;;;;;;2.00;1.90;;;25.70;52.90;;;;;;5033786;28;20442;-79
2023/08/28 05:05:24;;;;;;;2.20;2.00;;;25.70;53.10;;;;;;5025814;28;21001;-79
2023/08/28 05:07:53;;;;;;;2.13;2.03;;;25.80;53.00;;;;;;5033239;28;20498;-79
2023/08/28 05:10:22;;;;;;;1.70;1.70;;;25.80;53.00;;;;;;5033861;28;20526;-82
2023/08/28 05:12:50;;;;;;;6.77;2.30;;;25.70;52.90;;;;;;5034304;28;20410;-80
2023/08/28 05:15:18;;;;;;;2.03;1.93;;;25.70;53.00;;;;;;5034212;28;20507;-79
2023/08/28 05:17:46;;;;;;;2.13;2.03;;;25.70;53.00;;;;;;5034449;28;20464;-79
2023/08/28 05:20:14;;;;;;;1.97;1.87;;;25.70;52.90;;;;;;5032568;28;20413;-80
2023/08/28 05:22:42;;;;;;;2.10;2.00;;;25.70;53.10;;;;;;5028041;28;20481;-82
2023/08/28 05:25:11;;;;;;;1.90;1.80;;;25.70;53.10;;;;;;5033466;28;20924;-78
2023/08/28 05:27:39;;;;;;;2.80;1.80;;;25.70;53.00;;;;;;5034381;28;20553;-79
2023/08/28 05:30:08;;;;;;;2.30;2.20;;;25.70;53.20;;;;;;5034446;28;20436;-80
2023/08/28 05:32:36;;;;;;;2.20;2.10;;;25.70;53.00;;;;;;5033650;28;20502;-79
2023/08/28 05:35:05;;;;;;;2.23;2.10;;;25.70;52.90;;;;;;5033311;28;20497;-80
2023/08/28 05:37:33;;;;;;;2.13;2.03;;;25.70;53.20;;;;;;5033324;28;20438;-80
2023/08/28 05:40:01;;;;;;;3.00;1.90;;;25.70;53.10;;;;;;5033006;28;20573;-82
2023/08/28 05:42:30;;;;;;;1.83;1.73;;;25.70;53.10;;;;;;5032987;28;20479;-82
2023/08/28 05:44:59;;;;;;;4.00;2.00;;;25.70;53.20;;;;;;5032959;28;20530;-79
2023/08/28 05:47:26;;;;;;;2.47;2.27;;;25.70;53.10;;;;;;5033071;28;20501;-79
2023/08/28 05:49:54;;;;;;;2.27;2.17;;;25.70;53.20;;;;;;5032652;28;20435;-80
2023/08/28 05:52:22;;;;;;;2.57;2.37;;;25.70;53.00;;;;;;5033268;28;20500;-80
2023/08/28 05:54:50;;;;;;;2.70;2.50;;;25.70;53.20;;;;;;5033061;28;20487;-78
2023/08/28 05:57:19;;;;;;;2.20;2.00;;;25.70;53.00;;;;;;5032429;28;20455;-78
2023/08/28 05:59:49;;;;;;;2.23;1.80;;;25.70;53.00;;;;;;5032599;28;20425;-79
2023/08/28 06:02:17;;;;;;;1.80;1.70;;;25.70;53.00;;;;;;5032452;28;20471;-79
2023/08/28 06:04:46;;;;;;;1.90;1.80;;;25.70;53.10;;;;;;5033148;28;20441;-81
2023/08/28 06:07:17;;;;;;;1.67;1.67;;;25.70;53.10;;;;;;5028153;28;20470;-78
2023/08/28 06:09:45;;;;;;;1.90;1.80;;;25.70;53.10;;;;;;5032789;28;20529;-79
2023/08/28 06:12:13;;;;;;;2.13;2.03;;;25.70;53.00;;;;;;5032857;28;20535;-82
2023/08/28 06:14:41;;;;;;;1.80;1.70;;;25.70;53.10;;;;;;5032634;28;20531;-81
2023/08/28 06:17:10;;;;;;;2.10;2.00;;;25.80;52.90;;;;;;5024275;28;20530;-78
2023/08/28 06:19:38;;;;;;;2.00;1.90;;;25.80;53.00;;;;;;5027481;28;20446;-79
2023/08/28 06:22:06;;;;;;;2.20;2.00;;;25.80;53.00;;;;;;5033256;28;20511;-80
2023/08/28 06:24:35;;;;;;;1.87;1.77;;;25.80;52.80;;;;;;5032307;28;20519;-79
2023/08/28 06:27:03;;;;;;;2.00;1.90;;;25.90;53.60;;;;;;5032135;28;20452;-80
2023/08/28 06:29:31;;;;;;;1.87;1.77;;;25.90;52.90;;;;;;5023684;28;20458;-79
2023/08/28 06:32:00;;;;;;;1.77;1.67;;;25.90;53.00;;;;;;5032417;28;20459;-79
2023/08/28 06:34:29;;;;;;;1.50;1.40;;;25.90;52.70;;;;;;5031694;28;20442;-79
2023/08/28 06:36:56;;;;;;;1.80;1.70;;;26.00;52.80;;;;;;5031730;28;20460;-81
2023/08/28 06:39:25;;;;;;;1.30;1.30;;;26.00;52.80;;;;;;5031576;28;20524;-79
2023/08/28 06:41:53;;;;;;;1.67;1.57;;;26.00;52.50;;;;;;5031636;28;20513;-79
2023/08/28 06:44:21;;;;;;;1.70;1.60;;;26.00;52.50;;;;;;5031694;28;20410;-80
2023/08/28 06:46:49;;;;;;;1.90;1.80;;;26.00;52.60;;;;;;5022964;28;20444;-80
2023/08/28 06:49:17;;;;;;;1.63;1.53;;;26.00;52.50;;;;;;5028710;28;20463;-80
2023/08/28 06:51:48;;;;;;;1.90;1.80;;;26.00;52.60;;;;;;5031563;28;20861;-78
2023/08/28 06:54:16;;;;;;;2.10;2.00;;;26.10;52.70;;;;;;5031075;28;20439;-79
2023/08/28 06:56:44;;;;;;;1.53;1.47;;;26.10;52.50;;;;;;5031214;28;20530;-80
2023/08/28 06:59:12;;;;;;;1.80;1.70;;;26.10;52.40;;;;;;5032325;28;20499;-79
2023/08/28 07:01:41;;;;;;;1.87;1.67;;;26.10;52.50;;;;;;5035117;28;20432;-79
2023/08/28 07:04:09;;;;;;;1.83;1.73;;;26.10;52.60;;;;;;5032070;28;20458;-81
2023/08/28 07:06:38;;;;;;;4.17;3.83;;;26.10;52.50;;;;;;5042262;28;20896;-80
2023/08/28 07:09:07;;;;;;;6.37;4.70;;;25.90;50.90;;;;;;5033800;28;20542;-80
2023/08/28 07:11:34;;;;;;;6.63;5.33;;;24.00;54.00;;;;;;5031213;28;20471;-79
2023/08/28 07:14:02;;;;;;;6.93;5.20;;;22.90;56.40;;;;;;5030640;28;20475;-79
2023/08/28 07:16:30;;;;;;;10.53;5.60;;;22.10;58.10;;;;;;5031414;28;20502;-82
2023/08/28 07:18:58;;;;;;;6.90;5.77;;;21.30;60.90;;;;;;5031094;28;20469;-79
2023/08/28 07:21:26;;;;;;;6.13;5.40;;;20.50;63.60;;;;;;5030841;28;20475;-78
2023/08/28 07:23:54;;;;;;;7.30;6.50;;;20.40;65.10;;;;;;5031078;28;20553;-79
2023/08/28 07:26:24;;;;;;;7.73;5.70;;;20.50;65.80;;;;;;5030602;28;20480;-80
2023/08/28 07:28:52;;;;;;;9.00;5.70;;;20.40;66.90;;;;;;5031583;28;20495;-80
2023/08/28 07:31:20;;;;;;;8.60;5.53;;;20.50;67.20;;;;;;5031283;28;20539;-79
2023/08/28 07:33:48;;;;;;;11.00;5.80;;;20.30;67.80;;;;;;5038336;28;20498;-81
2023/08/28 07:36:21;;;;;;;7.07;4.43;;;20.20;68.40;;;;;;5034219;28;20873;-81
2023/08/28 07:38:49;;;;;;;5.27;3.83;;;20.40;68.10;;;;;;5044949;28;20470;-80
2023/08/28 07:41:19;;;;;;;7.33;4.97;;;20.70;68.90;;;;;;5038334;28;20452;-80
2023/08/28 07:43:49;;;;;;;8.67;5.80;;;20.80;66.80;;;;;;5029257;28;20499;-80
2023/08/28 07:46:17;;;;;;;6.00;4.80;;;20.50;68.40;;;;;;5035039;28;20527;-80
2023/08/28 07:48:44;;;;;;;7.60;5.13;;;20.50;69.50;;;;;;5035184;28;20459;-80
2023/08/28 07:51:12;;;;;;;7.87;5.13;;;20.70;70.20;;;;;;5034324;28;20559;-80
2023/08/28 07:53:40;;;;;;;6.97;4.53;;;21.00;69.00;;;;;;5027460;28;20534;-78
2023/08/28 07:56:09;;;;;;;6.67;4.30;;;20.70;68.70;;;;;;5032443;28;20435;-79
2023/08/28 07:58:37;;;;;;;4.53;4.07;;;20.80;69.50;;;;;;5034444;28;20946;-78
2023/08/28 08:01:06;;;;;;;4.70;4.27;;;20.90;70.30;;;;;;5032948;28;20466;-78
2023/08/28 08:03:35;;;;;;;10.27;6.70;;;21.00;70.90;;;;;;5034191;28;20475;-76
2023/08/28 08:06:03;;;;;;;5.27;4.37;;;21.40;69.40;;;;;;5034681;28;20443;-78
2023/08/28 08:08:31;;;;;;;7.40;4.27;;;21.70;68.80;;;;;;5032702;28;20521;-78
2023/08/28 08:10:59;;;;;;;4.33;3.93;;;21.80;67.80;;;;;;5034353;28;20534;-78
2023/08/28 08:13:27;;;;;;;5.97;4.00;;;21.90;67.20;;;;;;5032784;28;20984;-78
2023/08/28 08:15:55;;;;;;;3.83;3.53;;;21.80;66.50;;;;;;5033174;28;20538;-78
2023/08/28 08:18:24;;;;;;;8.50;4.97;;;22.20;67.20;;;;;;5033816;28;20475;-78
2023/08/28 08:20:52;;;;;;;4.97;4.27;;;22.50;65.80;;;;;;5040576;28;20446;-78
2023/08/28 08:23:20;;;;;;;6.47;4.30;;;22.30;66.00;;;;;;5041725;28;20549;-79
2023/08/28 08:25:48;;;;;;;3.60;3.30;;;22.60;64.60;;;;;;5027160;28;20510;-79
2023/08/28 08:28:16;;;;;;;8.33;3.60;;;22.50;67.10;;;;;;5034318;28;20484;-78
2023/08/28 08:30:44;;;;;;;3.10;2.90;;;22.70;66.30;;;;;;5035030;28;20522;-78
2023/08/28 08:33:12;;;;;;;2.40;2.20;;;23.00;69.30;;;;;;5035830;28;20527;-79
2023/08/28 08:35:41;;;;;;;1.60;1.50;;;24.00;66.90;;;;;;5034370;28;20431;-78
2023/08/28 08:38:09;;;;;;;1.43;1.33;;;24.80;64.30;;;;;;5034327;28;20550;-79
2023/08/28 08:40:37;;;;;;;1.80;1.40;;;25.40;61.90;;;;;;5034247;28;20501;-78
2023/08/28 08:43:05;;;;;;;1.77;1.30;;;25.90;59.90;;;;;;5033868;28;20473;-79
2023/08/28 08:45:35;;;;;;;2.93;0.93;;;26.40;58.60;;;;;;5033176;28;20418;-79
2023/08/28 08:48:06;;;;;;;9.57;1.50;;;26.80;57.50;;;;;;5034752;28;20441;-79
2023/08/28 08:50:36;;;;;;;1.40;1.30;;;27.10;56.50;;;;;;5028968;28;20427;-79
2023/08/28 08:53:06;;;;;;;4.10;1.30;;;27.40;55.70;;;;;;5033732;28;20522;-79
2023/08/28 08:55:39;;;;;;;4.50;1.23;;;27.70;55.20;;;;;;5032613;28;20426;-79
2023/08/28 08:58:10;;;;;;;4.60;1.30;;;28.00;54.40;;;;;;5033931;28;20495;-78
2023/08/28 09:00:39;;;;;;;1.73;1.40;;;28.20;54.00;;;;;;5033561;28;20414;-78
2023/08/28 09:03:07;;;;;;;1.70;1.23;;;28.40;53.40;;;;;;5032716;28;20453;-78
2023/08/28 09:05:36;;;;;;;3.20;1.37;;;28.70;53.00;;;;;;5033454;28;20451;-79
2023/08/28 09:08:06;;;;;;;1.27;1.03;;;28.80;52.50;;;;;;5033655;28;20500;-78
2023/08/28 09:10:34;;;;;;;1.37;1.27;;;29.00;52.10;;;;;;5033008;28;20422;-78
2023/08/28 09:13:04;;;;;;;3.20;1.13;;;29.20;51.70;;;;;;5033503;28;20532;-78
2023/08/28 09:15:32;;;;;;;1.27;1.10;;;29.20;51.10;;;;;;5032704;28;20424;-78
2023/08/28 09:18:02;;;;;;;0.90;0.90;;;29.10;51.00;;;;;;5029184;28;20475;-77
2023/08/28 09:20:30;;;;;;;1.77;1.20;;;29.10;51.20;;;;;;5027830;28;20976;-76
2023/08/28 09:22:58;;;;;;;1.87;1.13;;;29.20;50.80;;;;;;5044684;28;20443;-76
2023/08/28 09:25:27;;;;;;;2.27;1.10;;;29.10;49.60;;;;;;5026037;28;20426;-76
2023/08/28 09:27:56;;;;;;;3.90;1.20;;;29.20;49.50;;;;;;5034369;28;20445;-77
2023/08/28 09:30:29;;;;;;;3.00;1.20;;;29.20;49.30;;;;;;5033635;28;20418;-77
2023/08/28 09:32:58;;;;;;;2.80;1.20;;;29.10;49.00;;;;;;5033960;28;20422;-77
2023/08/28 09:35:27;;;;;;;4.13;1.40;;;29.10;48.60;;;;;;5042933;28;20470;-77
2023/08/28 09:37:56;;;;;;;1.53;1.30;;;29.10;48.90;;;;;;5034077;28;20463;-77
2023/08/28 09:40:29;;;;;;;2.20;1.03;;;29.20;48.80;;;;;;5033012;28;20509;-77
2023/08/28 09:42:57;;;;;;;3.47;1.00;;;29.30;48.20;;;;;;5025204;28;20499;-78
2023/08/28 09:45:30;;;;;;;1.53;1.10;;;29.30;47.90;;;;;;5034924;28;20451;-77
2023/08/28 09:47:58;;;;;;;1.27;1.17;;;29.30;48.00;;;;;;5034546;28;20459;-79
2023/08/28 09:50:28;;;;;;;1.93;1.10;;;29.40;48.10;;;;;;5034847;28;20509;-78
2023/08/28 09:52:57;;;;;;;1.17;0.90;;;29.50;47.80;;;;;;5035945;28;20530;-77
2023/08/28 09:55:25;;;;;;;2.10;1.03;;;29.60;47.20;;;;;;5043374;28;20470;-78
2023/08/28 09:57:55;;;;;;;5.80;0.90;;;29.60;46.70;;;;;;5030072;28;20497;-76
2023/08/28 10:00:23;;;;;;;7.40;1.30;;;29.70;46.40;;;;;;5032584;28;20552;-78
2023/08/28 10:02:51;;;;;;;4.10;1.20;;;29.80;46.60;;;;;;5032254;28;20454;-76
2023/08/28 10:05:20;;;;;;;2.83;1.23;;;30.00;46.30;;;;;;5027255;28;20515;-77
2023/08/28 10:07:48;;;;;;;1.03;0.90;;;30.10;46.40;;;;;;5033309;28;20946;-75
2023/08/28 10:10:16;;;;;;;6.87;1.00;;;30.10;45.80;;;;;;5043402;28;20490;-76
2023/08/28 10:12:44;;;;;;;2.10;1.00;;;30.20;45.70;;;;;;5040604;28;20414;-76
2023/08/28 10:15:17;;;;;;;1.00;1.00;;;30.30;45.60;;;;;;5036453;28;20414;-76
2023/08/28 10:17:45;;;;;;;0.90;0.83;;;30.30;46.00;;;;;;5037072;28;20539;-75
2023/08/28 10:20:13;;;;;;;1.23;1.13;;;30.20;44.70;;;;;;5036145;28;20408;-76
2023/08/28 10:22:40;;;;;;;1.00;0.87;;;30.20;45.10;;;;;;5035930;28;20439;-76
2023/08/28 10:25:09;;;;;;;1.57;0.80;;;30.20;45.00;;;;;;5036512;28;20476;-75
2023/08/28 10:27:36;;;;;;;2.70;0.90;;;30.10;44.90;;;;;;5038685;28;20547;-76
2023/08/28 10:30:05;;;;;;;1.10;1.00;;;30.10;45.00;;;;;;5038193;28;20467;-76
2023/08/28 10:32:34;;;;;;;1.17;1.00;;;29.90;45.20;;;;;;5036735;28;20431;-76
2023/08/28 10:35:02;;;;;;;1.23;1.00;;;29.80;45.20;;;;;;5038135;28;20440;-76
2023/08/28 10:37:30;;;;;;;1.60;0.80;;;29.70;45.40;;;;;;5037139;28;20505;-76
2023/08/28 10:39:58;;;;;;;1.13;1.13;;;29.60;45.10;;;;;;5036802;28;20436;-76
2023/08/28 10:42:26;;;;;;;0.97;0.83;;;29.50;45.40;;;;;;5037405;28;20455;-76
2023/08/28 10:44:55;;;;;;;1.63;1.07;;;29.40;45.70;;;;;;5036622;28;20433;-76
2023/08/28 10:47:24;;;;;;;1.17;1.07;;;29.40;46.00;;;;;;5037875;28;20505;-76
2023/08/28 10:49:55;;;;;;;2.50;1.40;;;29.30;46.10;;;;;;5035302;28;20454;-77
2023/08/28 10:52:23;;;;;;;1.47;1.00;;;29.20;46.20;;;;;;5031367;28;20475;-76
2023/08/28 10:54:51;;;;;;;2.60;1.30;;;29.20;46.40;;;;;;5024995;28;20435;-76
2023/08/28 10:57:22;;;;;;;2.27;1.20;;;29.10;46.50;;;;;;5033213;28;20441;-76
2023/08/28 10:59:50;;;;;;;2.50;1.30;;;29.10;46.70;;;;;;5030879;28;20472;-76
2023/08/28 11:02:18;;;;;;;3.57;1.40;;;29.10;46.80;;;;;;5030046;28;20443;-76
2023/08/28 11:04:46;;;;;;;1.73;1.20;;;29.10;46.70;;;;;;5031272;28;20566;-76
2023/08/28 11:07:45;;;;;;;1.10;1.00;;;29.00;46.80;;;;;;5030985;28;20427;-76
2023/08/28 11:10:17;;;;;;;2.97;1.20;;;29.00;46.90;;;;;;5030739;28;20410;-77
2023/08/28 11:12:56;;;;;;;1.20;1.10;;;28.90;46.90;;;;;;5030146;28;20430;-76
2023/08/28 11:15:27;;;;;;;1.23;1.10;;;28.90;46.90;;;;;;5030304;28;20559;-77
2023/08/28 11:18:29;;;;;;;1.90;1.03;;;28.90;46.80;;;;;;5030792;28;20510;-76
2023/08/28 11:20:58;;;;;;;2.43;1.20;;;28.80;46.40;;;;;;4989315;28;20403;-76
2023/08/28 11:23:33;;;;;;;1.00;0.90;;;28.70;46.20;;;;;;4988410;28;20449;-76
2023/08/28 11:26:04;;;;;;;0.93;0.90;;;28.70;46.30;;;;;;5009803;28;20459;-76
2023/08/28 11:28:33;;;;;;;1.10;1.00;;;28.70;46.40;;;;;;5030820;28;20457;-76
2023/08/28 11:31:01;;;;;;;1.57;1.00;;;28.60;46.50;;;;;;5030294;28;20449;-76
2023/08/28 11:33:37;;;;;;;1.70;1.30;;;28.60;46.60;;;;;;5030164;28;20458;-76
2023/08/28 11:36:05;;;;;;;3.60;1.37;;;28.60;46.90;;;;;;5030633;28;21005;-76
2023/08/28 11:38:34;;;;;;;1.13;0.90;;;28.60;46.70;;;;;;5022855;28;20477;-76
2023/08/28 11:41:05;;;;;;;2.20;0.90;;;28.50;46.60;;;;;;5021908;28;20449;-76
2023/08/28 11:43:36;;;;;;;2.10;0.90;;;28.50;46.40;;;;;;5022562;28;20447;-76
2023/08/28 11:46:04;;;;;;;1.63;0.97;;;28.40;46.10;;;;;;5028641;28;20524;-76
2023/08/28 11:48:34;;;;;;;1.33;0.80;;;28.40;46.00;;;;;;5028915;28;20459;-76
2023/08/28 11:51:03;;;;;;;0.87;0.60;;;28.30;45.90;;;;;;5029567;28;20434;-76
2023/08/28 11:53:36;;;;;;;0.73;0.70;;;28.30;46.00;;;;;;5029555;28;20417;-76
2023/08/28 11:56:05;;;;;;;1.37;0.80;;;28.30;45.90;;;;;;5035200;28;20439;-76
2023/08/28 11:58:33;;;;;;;0.97;0.80;;;28.30;46.10;;;;;;5039249;28;20451;-75
2023/08/28 12:01:05;;;;;;;2.03;0.90;;;28.30;46.20;;;;;;5029921;28;20525;-76
2023/08/28 12:03:33;;;;;;;0.83;0.83;;;28.30;46.20;;;;;;5029943;28;20510;-74
2023/08/28 12:06:06;;;;;;;0.80;0.80;;;28.20;46.00;;;;;;5030929;28;20446;-75
2023/08/28 12:08:36;;;;;;;0.87;0.87;;;28.20;46.10;;;;;;5029808;28;20972;-75
2023/08/28 12:11:04;;;;;;;0.90;0.77;;;28.20;46.00;;;;;;5030135;28;20501;-76
2023/08/28 12:13:33;;;;;;;1.43;0.80;;;28.10;46.00;;;;;;5025456;28;20509;-76
2023/08/28 12:16:11;;;;;;;2.00;0.90;;;28.20;46.20;;;;;;5029724;28;20436;-75
2023/08/28 12:18:45;;;;;;;1.20;0.80;;;28.20;46.30;;;;;;5030823;28;20463;-76
2023/08/28 12:21:14;;;;;;;1.33;0.97;;;28.20;46.40;;;;;;5029940;28;20417;-76
2023/08/28 12:23:48;;;;;;;1.23;0.90;;;28.10;46.50;;;;;;5034038;28;20435;-76
2023/08/28 12:26:17;;;;;;;1.10;0.80;;;28.20;46.70;;;;;;5033674;28;20452;-76
2023/08/28 12:28:45;;;;;;;0.80;0.80;;;28.20;46.60;;;;;;5033755;28;20459;-76
2023/08/28 12:31:12;;;;;;;1.83;1.30;;;28.20;46.90;;;;;;5033630;28;20538;-76
2023/08/28 12:33:41;;;;;;;1.00;0.90;;;28.20;46.90;;;;;;5032491;28;20422;-76
2023/08/28 12:36:09;;;;;;;0.80;0.80;;;28.30;47.10;;;;;;5031855;28;20505;-76
2023/08/28 12:38:48;;;;;;;1.10;1.00;;;28.30;47.00;;;;;;5033944;28;20996;-74
2023/08/28 12:41:16;;;;;;;1.60;0.90;;;28.40;47.00;;;;;;5033856;28;20417;-76
2023/08/28 12:43:45;;;;;;;1.13;0.90;;;28.60;46.90;;;;;;5031962;28;20447;-76
2023/08/28 12:46:14;;;;;;;0.70;0.70;;;28.80;46.40;;;;;;5026424;28;20480;-76
2023/08/28 12:48:43;;;;;;;2.40;0.80;;;28.90;45.90;;;;;;5033321;28;20438;-76
2023/08/28 12:51:11;;;;;;;0.97;0.87;;;29.10;45.50;;;;;;5025980;28;20443;-76
2023/08/28 12:53:39;;;;;;;1.23;0.90;;;29.20;45.20;;;;;;5033721;28;20482;-76